Time;durP1;ratioP1;P1;durP2;ratioP2;P2;SDS_P1;SDS_P2;PMS_P1;PMS_P2;Temp;Humidity;BMP_temperature;BMP_pressure;BME280_temperature;BME280_humidity;BME280_pressure;Samples;Min_cycle;Max_cycle;Signal;HPM_P1;HPM_P2
2021/05/28 00:00:21;;;;;;;6.10;3.60;;;;;;;15.09;100.00;100202.98;1862039;76;20989;-67
2021/05/28 00:02:48;;;;;;;10.17;3.90;;;;;;;15.05;100.00;100204.42;1889210;75;20861;-62
2021/05/28 00:05:15;;;;;;;8.00;3.80;;;;;;;15.05;100.00;100204.42;1859564;75;21575;-68
2021/05/28 00:07:42;;;;;;;6.57;3.67;;;;;;;15.03;100.00;100199.37;1883858;76;21622;-70
2021/05/28 00:10:10;;;;;;;7.20;3.53;;;;;;;15.03;100.00;100199.37;1875904;76;20941;-68
2021/05/28 00:12:37;;;;;;;10.03;4.00;;;;;;;15.03;100.00;100204.62;1860163;75;21470;-68
2021/05/28 00:15:11;;;;;;;7.50;3.77;;;;;;;15.01;100.00;100204.55;1850447;76;22240;-63
2021/05/28 00:17:38;;;;;;;5.00;3.67;;;;;;;14.97;100.00;100196.81;1884786;76;21899;-66
2021/05/28 00:20:06;;;;;;;5.67;3.80;;;;;;;14.93;100.00;100190.39;1876502;76;21031;-66
2021/05/28 00:22:34;;;;;;;7.47;3.83;;;;;;;14.92;100.00;100196.63;1845591;76;20889;-62
2021/05/28 00:25:01;;;;;;;8.70;3.60;;;;;;;14.88;100.00;100193.63;1857674;76;21594;-66
2021/05/28 00:27:30;;;;;;;5.80;3.80;;;;;;;14.83;100.00;100194.27;1878014;76;21005;-66
2021/05/28 00:29:59;;;;;;;9.87;3.83;;;;;;;14.75;100.00;100190.59;1876687;76;21025;-66
2021/05/28 00:32:26;;;;;;;7.50;4.43;;;;;;;14.70;100.00;100194.37;1884390;76;20894;-68
2021/05/28 00:34:54;;;;;;;8.03;4.80;;;;;;;14.59;100.00;100185.34;1875103;76;21529;-63
2021/05/28 00:37:21;;;;;;;7.43;4.13;;;;;;;14.59;100.00;100185.34;1859951;76;21577;-66
2021/05/28 00:39:47;;;;;;;8.67;4.13;;;;;;;14.56;100.00;100187.58;1846143;76;21537;-66
2021/05/28 00:42:15;;;;;;;9.80;5.43;;;;;;;14.50;100.00;100197.08;1848610;75;21644;-65
2021/05/28 00:44:42;;;;;;;8.77;5.37;;;;;;;14.46;100.00;100195.06;1844109;76;21016;-61
2021/05/28 00:47:09;;;;;;;10.70;6.00;;;;;;;14.42;100.00;100188.63;1880589;76;21031;-66
2021/05/28 00:49:36;;;;;;;9.63;5.63;;;;;;;14.36;100.00;100186.35;1882434;76;21707;-65
2021/05/28 00:52:05;;;;;;;9.00;6.00;;;;;;;14.33;100.00;100185.45;1854707;76;21576;-68
2021/05/28 00:54:33;;;;;;;9.43;5.80;;;;;;;14.29;100.00;100194.24;1883718;76;21669;-68
2021/05/28 00:57:02;;;;;;;12.07;6.37;;;;;;;14.26;100.00;100197.27;1883240;76;21637;-68
2021/05/28 00:59:28;;;;;;;9.63;6.63;;;;;;;14.22;100.00;100189.53;1884370;75;21649;-68
2021/05/28 01:01:56;;;;;;;8.27;5.50;;;;;;;14.22;100.00;100189.53;1861085;75;21506;-69
2021/05/28 01:04:22;;;;;;;10.60;5.70;;;;;;;14.22;100.00;100190.05;1843355;77;21570;-63
2021/05/28 01:06:48;;;;;;;13.40;5.53;;;;;;;14.20;100.00;100182.37;1865750;76;21542;-63
2021/05/28 01:09:17;;;;;;;9.90;5.90;;;;;;;14.21;100.00;100191.86;1844367;76;22307;-69
2021/05/28 01:11:43;;;;;;;11.17;5.83;;;;;;;14.23;100.00;100185.09;1846859;75;21597;-68
2021/05/28 01:14:11;;;;;;;9.80;6.53;;;;;;;14.23;100.00;100183.27;1874996;75;21651;-66
2021/05/28 01:16:39;;;;;;;8.37;5.43;;;;;;;14.24;100.00;100186.69;1871658;76;21680;-63
2021/05/28 01:19:08;;;;;;;17.27;7.23;;;;;;;14.24;100.00;100191.42;1871949;76;21651;-67
2021/05/28 01:21:36;;;;;;;11.80;6.33;;;;;;;14.23;100.00;100186.40;1873196;76;22115;-67
2021/05/28 01:24:04;;;;;;;11.23;5.77;;;;;;;14.22;100.00;100194.77;1836587;76;20969;-67
2021/05/28 01:26:30;;;;;;;16.07;9.37;;;;;;;14.21;100.00;100191.86;1868786;75;21691;-61
2021/05/28 01:28:57;;;;;;;16.30;9.17;;;;;;;14.22;100.00;100195.28;1861659;76;21633;-66
2021/05/28 01:31:23;;;;;;;15.70;10.10;;;;;;;14.25;100.00;100195.67;1845839;76;21732;-67
2021/05/28 01:33:50;;;;;;;13.03;7.73;;;;;;;14.25;100.00;100195.67;1866071;76;20886;-67
2021/05/28 01:36:17;;;;;;;17.80;9.07;;;;;;;14.29;100.00;100196.06;1845309;76;21021;-60
2021/05/28 01:38:44;;;;;;;17.00;9.30;;;;;;;14.38;100.00;100193.48;1860637;76;21742;-60
2021/05/28 01:41:11;;;;;;;20.37;8.97;;;;;;;14.38;100.00;100193.48;1867367;75;20982;-64
2021/05/28 01:43:39;;;;;;;12.37;8.07;;;;;;;14.43;100.00;100191.03;1866312;76;21526;-67
2021/05/28 01:46:06;;;;;;;14.67;7.83;;;;;;;14.49;100.00;100193.34;1841486;77;21036;-67
2021/05/28 01:48:34;;;;;;;15.00;8.07;;;;;;;14.53;100.00;100186.69;1869550;76;20964;-66
2021/05/28 01:51:00;;;;;;;11.97;7.93;;;;;;;14.62;100.00;100191.97;1841643;77;20992;-66
2021/05/28 01:53:27;;;;;;;12.13;8.27;;;;;;;14.69;100.00;100187.48;1867710;76;21044;-68
2021/05/28 01:55:55;;;;;;;15.03;8.70;;;;;;;14.80;100.00;100188.64;1884273;76;21062;-63
2021/05/28 01:58:23;;;;;;;15.53;7.20;;;;;;;14.87;100.00;100185.97;1871903;76;20925;-66
2021/05/28 02:00:51;;;;;;;15.13;7.60;;;;;;;14.92;100.00;100180.88;1865157;75;21566;-65
2021/05/28 02:03:19;;;;;;;14.60;7.77;;;;;;;15.00;100.00;100187.17;1866056;75;21008;-64
2021/05/28 02:05:48;;;;;;;12.97;7.90;;;;;;;15.00;100.00;100187.17;1852199;75;21036;-64
2021/05/28 02:08:15;;;;;;;15.80;7.37;;;;;;;15.04;100.00;100192.33;1860719;75;21073;-65
2021/05/28 02:10:43;;;;;;;11.37;7.20;;;;;;;15.06;100.00;100183.70;1859376;75;21572;-65
2021/05/28 02:13:11;;;;;;;12.93;7.97;;;;;;;15.08;100.00;100181.69;1822336;77;21584;-63
2021/05/28 02:15:38;;;;;;;13.03;9.00;;;;;;;15.12;100.00;100181.55;1814650;78;20900;-64
2021/05/28 02:18:05;;;;;;;13.67;8.83;;;;;;;15.15;100.00;100177.67;1826434;77;21012;-64
2021/05/28 02:20:34;;;;;;;16.97;8.33;;;;;;;15.15;100.00;100176.36;1807938;78;21096;-60
2021/05/28 02:23:02;;;;;;;14.07;7.87;;;;;;;15.16;100.00;100181.41;1851509;77;21490;-65
2021/05/28 02:25:29;;;;;;;20.43;8.80;;;;;;;15.19;100.00;100178.37;1840504;77;20899;-63
2021/05/28 02:27:56;;;;;;;18.67;9.53;;;;;;;15.24;100.00;100177.20;1823858;77;20994;-67
2021/05/28 02:30:23;;;;;;;11.90;8.70;;;;;;;15.28;100.00;100177.58;1815364;78;20994;-64
2021/05/28 02:32:50;;;;;;;12.37;7.80;;;;;;;15.30;100.00;100182.09;1816020;78;22154;-66
2021/05/28 02:35:17;;;;;;;15.50;7.80;;;;;;;15.32;100.00;100176.13;1823333;78;21329;-66
2021/05/28 02:37:43;;;;;;;13.63;7.53;;;;;;;15.33;100.00;100170.64;1830886;78;21518;-67
2021/05/28 02:40:12;;;;;;;12.03;6.93;;;;;;;15.36;100.00;100169.93;1809654;78;21037;-67
2021/05/28 02:42:38;;;;;;;12.20;6.73;;;;;;;15.35;100.00;100165.19;1830942;78;20895;-67
2021/05/28 02:45:07;;;;;;;9.10;4.83;;;;;;;15.40;100.00;100167.16;1821557;78;21649;-67
2021/05/28 02:47:33;;;;;;;8.67;4.00;;;;;;;15.44;100.00;100165.70;1815278;78;21052;-66
2021/05/28 02:50:00;;;;;;;8.17;4.60;;;;;;;15.46;100.00;100163.68;1814138;78;21147;-68
2021/05/28 02:52:27;;;;;;;5.83;3.77;;;;;;;15.48;100.00;100165.56;1818192;77;20921;-63
2021/05/28 02:54:54;;;;;;;8.53;4.07;;;;;;;15.53;100.00;100167.02;1825586;77;20968;-66
2021/05/28 02:57:22;;;;;;;5.70;3.60;;;;;;;15.57;100.00;100153.77;1794387;77;21042;-66
2021/05/28 02:59:49;;;;;;;8.33;3.40;;;;;;;15.63;100.00;100155.50;1789069;78;21057;-65
2021/05/28 03:02:17;;;;;;;10.47;3.63;;;;;;;15.72;100.00;100156.04;1756742;78;21648;-63
2021/05/28 03:04:44;;;;;;;7.07;3.80;;;;;;;15.85;100.00;100157.22;1801247;78;21071;-65
2021/05/28 03:07:11;;;;;;;8.77;3.10;;;;;;;15.98;100.00;100151.80;1797779;78;22085;-65
2021/05/28 03:09:37;;;;;;;5.80;2.87;;;;;;;16.18;100.00;100161.29;1784818;78;21158;-61
2021/05/28 03:12:06;;;;;;;7.50;3.93;;;;;;;16.37;100.00;100158.91;1789656;78;21476;-64
2021/05/28 03:14:33;;;;;;;6.10;3.10;;;;;;;16.56;100.00;100156.23;1759280;79;20995;-65
2021/05/28 03:16:59;;;;;;;7.77;3.37;;;;;;;16.74;100.00;100151.73;1780048;78;21061;-64
2021/05/28 03:19:30;;;;;;;9.80;3.47;;;;;;;16.92;100.00;100152.66;1794354;78;20938;-66
2021/05/28 03:24:43;;;;;;;21.93;7.20;;;;;;;17.28;100.00;100167.98;1730297;79;21055;-64
2021/05/28 03:27:10;;;;;;;22.70;8.47;;;;;;;17.35;100.00;100153.66;1785246;79;22358;-65
2021/05/28 03:29:37;;;;;;;18.80;6.87;;;;;;;17.44;100.00;100160.70;1790451;79;21621;-65
2021/05/28 03:32:05;;;;;;;18.57;6.27;;;;;;;17.53;100.00;100158.50;1786125;78;21088;-65
2021/05/28 03:34:32;;;;;;;12.87;5.10;;;;;;;17.62;100.00;100156.61;1757495;80;21098;-63
2021/05/28 03:36:59;;;;;;;8.63;4.63;;;;;;;17.74;100.00;100161.34;1793571;78;21303;-64
2021/05/28 03:39:27;;;;;;;13.80;6.43;;;;;;;17.80;100.00;100158.31;1760741;79;21018;-64
2021/05/28 03:41:53;;;;;;;22.30;9.70;;;;;;;17.87;100.00;100159.51;1772187;79;21615;-63
2021/05/28 03:44:20;;;;;;;30.03;12.20;;;;;;;17.97;100.00;100163.67;1762509;79;22532;-63
2021/05/28 03:46:48;;;;;;;35.10;13.53;;;;;;;18.06;100.00;100159.63;1738511;79;21101;-66
2021/05/28 03:49:14;;;;;;;31.23;12.63;;;;;;;18.17;100.00;100162.73;1766811;79;21007;-64
2021/05/28 03:51:41;;;;;;;20.30;8.07;;;;;;;18.36;100.00;100162.55;1788082;78;21068;-65
2021/05/28 03:54:08;;;;;;;20.33;9.13;;;;;;;18.55;100.00;100165.27;1759122;78;21793;-65
2021/05/28 03:56:34;;;;;;;26.23;9.70;;;;;;;18.79;100.00;100157.23;1778581;78;21781;-61
2021/05/28 03:59:01;;;;;;;20.73;9.80;;;;;;;19.33;100.00;100160.19;1777412;78;21138;-63
2021/05/28 04:01:27;;;;;;;16.50;7.93;;;;;;;20.21;100.00;100157.59;1750626;79;20952;-66
2021/05/28 04:03:54;;;;;;;10.27;5.23;;;;;;;20.99;100.00;100156.73;1775129;78;21525;-62
2021/05/28 04:06:21;;;;;;;10.50;4.50;;;;;;;21.36;100.00;100153.53;1768813;78;21092;-64
2021/05/28 04:08:47;;;;;;;7.27;3.50;;;;;;;21.37;100.00;100149.85;1760730;78;21052;-61
2021/05/28 04:11:14;;;;;;;9.90;3.77;;;;;;;21.27;100.00;100148.42;1762659;79;21706;-65
2021/05/28 04:13:40;;;;;;;6.07;2.73;;;;;;;21.28;100.00;100143.39;1771502;78;20986;-64
2021/05/28 04:16:08;;;;;;;4.87;2.27;;;;;;;21.48;100.00;100144.08;1781055;78;20893;-60
2021/05/28 04:18:36;;;;;;;8.23;2.70;;;;;;;21.97;100.00;100132.30;1809519;78;21212;-65
2021/05/28 04:21:05;;;;;;;8.63;2.43;;;;;;;22.74;100.00;100126.60;1774746;78;21152;-65
2021/05/28 04:23:32;;;;;;;8.60;2.40;;;;;;;23.64;100.00;100119.22;1786743;78;21072;-65
2021/05/28 04:25:58;;;;;;;7.40;2.40;;;;;;;24.61;100.00;100119.47;1777439;79;20965;-64
2021/05/28 04:28:25;;;;;;;7.20;2.87;;;;;;;25.41;100.00;100120.29;1764816;79;20983;-64
2021/05/28 04:30:52;;;;;;;9.63;2.65;;;;;;;26.17;94.87;100123.84;1775154;78;20998;-62
2021/05/28 04:33:19;;;;;;;5.95;2.80;;;;;;;26.95;86.60;100122.89;1768144;79;20970;-62
2021/05/28 04:35:46;;;;;;;6.95;2.95;;;;;;;27.81;75.34;100123.11;1767030;78;21486;-62
2021/05/28 04:38:13;;;;;;;5.35;2.75;;;;;;;28.59;62.75;100121.59;1767498;79;21076;-62
2021/05/28 04:40:40;;;;;;;6.47;3.52;;;;;;;29.02;56.86;100121.06;1767002;79;21087;-62
2021/05/28 04:43:07;;;;;;;8.35;3.67;;;;;;;29.36;52.85;100127.11;1770683;79;21118;-63
2021/05/28 04:45:34;;;;;;;12.82;5.40;;;;;;;29.51;47.58;100126.67;1770292;79;21577;-63
2021/05/28 04:48:02;;;;;;;7.55;3.10;;;;;;;29.57;47.75;100129.46;1771326;79;21079;-62
2021/05/28 04:50:33;;;;;;;6.65;2.95;;;;;;;29.70;46.16;100125.08;1766114;79;21550;-61
2021/05/28 04:53:01;;;;;;;12.00;5.97;;;;;;;29.84;46.61;100132.19;1776533;78;21932;-65
2021/05/28 04:55:29;;;;;;;7.00;4.60;;;;;;;30.13;45.88;100131.58;1781973;78;21078;-65
2021/05/28 04:57:55;;;;;;;9.95;3.70;;;;;;;30.38;43.84;100128.64;1773070;78;20980;-65
2021/05/28 05:00:23;;;;;;;9.20;3.45;;;;;;;30.56;42.01;100122.12;1785688;78;21012;-65
2021/05/28 05:02:50;;;;;;;5.00;2.98;;;;;;;30.62;41.47;100119.51;1769173;79;20988;-65
2021/05/28 05:05:17;;;;;;;5.33;3.00;;;;;;;30.69;42.57;100125.19;1786942;78;21099;-64
2021/05/28 05:07:44;;;;;;;7.75;3.30;;;;;;;30.87;41.30;100123.23;1781662;78;21073;-67
2021/05/28 05:10:11;;;;;;;7.03;3.33;;;;;;;30.90;40.40;100123.16;1792969;78;21060;-64
2021/05/28 05:12:39;;;;;;;6.33;3.20;;;;;;;30.81;41.17;100127.80;1769376;79;21056;-61
2021/05/28 05:15:07;;;;;;;5.30;2.98;;;;;;;30.78;40.80;100123.28;1758945;79;21038;-64
2021/05/28 05:17:34;;;;;;;9.38;2.83;;;;;;;30.74;40.65;100121.56;1757665;79;21068;-64
2021/05/28 05:20:01;;;;;;;5.05;2.50;;;;;;;30.64;40.15;100117.27;1756759;79;21035;-63
2021/05/28 05:22:27;;;;;;;5.30;2.95;;;;;;;30.66;41.12;100114.27;1774353;78;20903;-64
2021/05/28 05:24:54;;;;;;;6.60;2.67;;;;;;;30.91;41.49;100107.23;1791170;78;21417;-65
2021/05/28 05:27:21;;;;;;;7.17;2.98;;;;;;;31.20;39.56;100107.27;1763762;79;21588;-64
2021/05/28 05:29:47;;;;;;;7.00;2.45;;;;;;;31.42;37.84;100109.48;1788243;78;20969;-64
2021/05/28 05:32:15;;;;;;;6.90;3.02;;;;;;;31.58;37.49;100108.34;1753278;80;20985;-64
2021/05/28 05:34:42;;;;;;;10.00;3.15;;;;;;;31.76;37.02;100109.02;1751067;79;20937;-61
2021/05/28 05:37:08;;;;;;;9.88;3.33;;;;;;;31.88;36.77;100107.76;1771011;78;21098;-65
2021/05/28 05:39:35;;;;;;;9.93;4.33;;;;;;;31.70;36.92;100105.16;1785284;78;20969;-64
2021/05/28 05:42:01;;;;;;;11.03;3.95;;;;;;;31.27;37.09;100104.07;1768862;79;21016;-65
2021/05/28 05:44:28;;;;;;;10.18;4.10;;;;;;;30.80;38.10;100108.70;1782469;79;21032;-61
2021/05/28 05:46:56;;;;;;;7.83;3.35;;;;;;;30.24;40.03;100105.98;1787225;78;21040;-65
2021/05/28 05:49:22;;;;;;;8.63;3.33;;;;;;;29.68;41.35;100107.12;1787356;78;21159;-67
2021/05/28 05:51:49;;;;;;;13.60;4.08;;;;;;;29.20;42.87;100109.27;1788917;78;20965;-66
2021/05/28 05:54:16;;;;;;;6.60;3.47;;;;;;;28.88;44.83;100101.55;1791532;78;21024;-62
2021/05/28 05:56:43;;;;;;;9.90;3.85;;;;;;;28.44;46.05;100100.52;1776054;78;21139;-65
2021/05/28 05:59:10;;;;;;;8.00;4.17;;;;;;;28.05;48.77;100099.28;1781011;78;21193;-62
2021/05/28 06:01:37;;;;;;;7.05;4.03;;;;;;;27.77;51.81;100102.56;1784554;78;21156;-66
2021/05/28 06:04:05;;;;;;;8.80;3.98;;;;;;;27.60;52.69;100093.81;1760594;80;21008;-66
2021/05/28 06:06:32;;;;;;;9.83;4.47;;;;;;;27.60;56.48;100087.91;1759584;80;21047;-62
2021/05/28 06:09:00;;;;;;;6.95;3.33;;;;;;;27.73;57.68;100084.97;1763314;80;21079;-63
2021/05/28 06:11:26;;;;;;;10.18;3.67;;;;;;;28.13;56.31;100080.58;1766647;80;21052;-68
2021/05/28 06:13:54;;;;;;;6.00;3.72;;;;;;;28.79;52.43;100078.69;1764419;80;21585;-68
2021/05/28 06:16:21;;;;;;;6.22;3.37;;;;;;;29.32;47.45;100079.13;1764037;80;21640;-65
2021/05/28 06:18:47;;;;;;;7.60;3.42;;;;;;;29.56;45.96;100084.87;1761312;80;20949;-67
2021/05/28 06:21:14;;;;;;;8.30;3.95;;;;;;;29.58;47.39;100077.31;1764519;80;20995;-61
2021/05/28 06:23:40;;;;;;;5.35;3.22;;;;;;;29.66;47.04;100077.08;1766391;80;20976;-66
2021/05/28 06:26:06;;;;;;;7.70;3.17;;;;;;;29.78;46.19;100073.80;1762183;80;21845;-67
2021/05/28 06:28:33;;;;;;;5.83;3.15;;;;;;;29.88;43.99;100065.95;1765061;80;21011;-61
2021/05/28 06:31:01;;;;;;;7.33;3.45;;;;;;;29.90;43.49;100069.91;1760909;80;21095;-65
2021/05/28 06:33:28;;;;;;;8.00;3.60;;;;;;;30.00;42.45;100068.78;1761990;80;21052;-62
2021/05/28 06:35:55;;;;;;;5.45;3.17;;;;;;;30.48;42.25;100065.11;1758825;80;21092;-63
2021/05/28 06:38:21;;;;;;;5.25;2.72;;;;;;;31.30;40.53;100062.24;1764605;80;21075;-66
2021/05/28 06:40:49;;;;;;;6.70;2.85;;;;;;;32.35;39.33;100061.09;1761622;80;21151;-65
2021/05/28 06:43:17;;;;;;;6.80;2.90;;;;;;;33.52;35.69;100064.61;1758121;80;20945;-65
2021/05/28 06:45:44;;;;;;;5.12;2.50;;;;;;;34.52;33.16;100060.60;1757155;80;20981;-65
2021/05/28 06:48:11;;;;;;;8.50;2.75;;;;;;;34.96;31.57;100057.75;1763118;80;21451;-65
2021/05/28 06:50:41;;;;;;;5.92;2.27;;;;;;;35.18;30.88;100056.92;1765675;80;21074;-61
2021/05/28 06:53:08;;;;;;;5.65;2.25;;;;;;;35.54;29.75;100057.14;1766507;78;21194;-65
2021/05/28 06:55:37;;;;;;;4.60;2.20;;;;;;;35.80;29.17;100055.11;1767928;80;21011;-61
2021/05/28 06:58:05;;;;;;;8.28;3.08;;;;;;;35.87;29.43;100059.33;1774499;80;21626;-65
2021/05/28 07:00:31;;;;;;;5.17;2.00;;;;;;;35.91;29.31;100057.46;1764085;80;21548;-60
2021/05/28 07:02:58;;;;;;;5.25;2.00;;;;;;;36.05;28.97;100050.98;1761048;80;21173;-68
2021/05/28 07:05:28;;;;;;;4.17;1.82;;;;;;;36.50;28.97;100047.31;1765836;80;21599;-67
2021/05/28 07:07:56;;;;;;;7.17;2.33;;;;;;;37.12;27.90;100057.96;1766532;80;20921;-67
2021/05/28 07:10:24;;;;;;;8.10;2.50;;;;;;;37.29;26.75;100058.79;1763181;80;21087;-67
2021/05/28 07:12:51;;;;;;;7.65;2.85;;;;;;;37.03;26.74;100056.09;1760089;80;22156;-69
2021/05/28 07:15:18;;;;;;;35.73;5.83;;;;;;;36.64;27.50;100057.63;1772309;80;21074;-68
2021/05/28 07:17:46;;;;;;;10.95;2.60;;;;;;;36.36;27.90;100055.97;1765119;80;21005;-60
2021/05/28 07:20:14;;;;;;;10.40;2.45;;;;;;;36.20;28.00;100048.52;1771845;80;21015;-66
2021/05/28 07:22:41;;;;;;;8.83;3.40;;;;;;;36.04;27.82;100049.42;1764218;80;21035;-70
2021/05/28 07:25:09;;;;;;;9.95;2.58;;;;;;;35.53;27.90;100050.91;1771998;80;21056;-67
2021/05/28 07:27:35;;;;;;;6.70;2.90;;;;;;;35.15;28.01;100050.84;1778602;78;21095;-65
2021/05/28 07:30:07;;;;;;;8.10;2.92;;;;;;;34.75;28.56;100052.64;1780692;78;21065;-61
2021/05/28 07:32:38;;;;;;;9.85;2.87;;;;;;;34.41;29.61;100048.69;1757003;78;21624;-65
2021/05/28 07:35:07;;;;;;;10.18;3.08;;;;;;;34.22;29.63;100050.73;1775692;78;21046;-67
2021/05/28 07:37:33;;;;;;;7.62;2.72;;;;;;;33.86;30.17;100044.89;1756247;78;21499;-61
2021/05/28 07:40:00;;;;;;;7.45;3.17;;;;;;;33.78;30.43;100047.97;1764982;78;21085;-66
2021/05/28 07:42:28;;;;;;;6.28;2.40;;;;;;;33.86;31.09;100046.25;1773651;78;21101;-66
2021/05/28 07:44:54;;;;;;;8.53;2.98;;;;;;;34.05;29.88;100045.62;1773560;78;20982;-66
2021/05/28 07:47:22;;;;;;;14.75;3.37;;;;;;;34.14;30.17;100041.64;1764713;80;20931;-65
2021/05/28 07:49:48;;;;;;;13.95;3.02;;;;;;;34.18;29.72;100045.02;1768042;78;21025;-61
2021/05/28 07:52:15;;;;;;;8.08;3.00;;;;;;;34.23;30.71;100036.63;1771131;78;21128;-66
2021/05/28 07:54:43;;;;;;;7.58;2.80;;;;;;;34.12;29.43;100035.78;1772625;78;20922;-67
2021/05/28 07:57:09;;;;;;;7.80;2.77;;;;;;;34.16;29.67;100031.81;1764458;78;22168;-67
2021/05/28 07:59:36;;;;;;;9.20;2.87;;;;;;;34.20;29.81;100031.91;1769345;78;21006;-61
2021/05/28 08:02:04;;;;;;;8.40;2.70;;;;;;;34.48;28.64;100033.98;1761931;78;21058;-67
2021/05/28 08:04:30;;;;;;;6.55;2.98;;;;;;;34.71;28.43;100030.11;1767272;79;21122;-66
2021/05/28 08:06:57;;;;;;;7.45;2.40;;;;;;;34.82;29.01;100027.09;1780991;78;20906;-67
2021/05/28 08:09:23;;;;;;;6.37;2.60;;;;;;;34.94;29.05;100019.42;1784326;79;20969;-67
2021/05/28 08:11:51;;;;;;;6.58;2.50;;;;;;;35.17;28.78;100018.78;1777987;79;21028;-61
2021/05/28 08:14:20;;;;;;;5.75;2.15;;;;;;;35.40;28.11;100016.94;1769912;78;21363;-62
2021/05/28 08:16:47;;;;;;;6.25;2.37;;;;;;;35.78;27.40;100015.38;1784488;78;21133;-67
2021/05/28 08:19:13;;;;;;;5.00;2.33;;;;;;;36.22;26.71;100011.75;1777395;78;21596;-62
2021/05/28 08:21:40;;;;;;;7.30;2.72;;;;;;;36.34;26.66;100014.84;1762729;79;21009;-68
2021/05/28 08:24:09;;;;;;;7.08;2.42;;;;;;;36.15;26.44;100014.34;1791781;78;21051;-61
2021/05/28 08:26:36;;;;;;;7.85;2.25;;;;;;;35.74;26.84;100005.04;1790520;78;21088;-66
2021/05/28 08:29:03;;;;;;;6.17;2.25;;;;;;;35.38;26.99;100004.88;1760037;80;21052;-67
2021/05/28 08:31:30;;;;;;;4.15;2.17;;;;;;;35.23;27.41;99999.73;1776040;78;21110;-67
2021/05/28 08:33:57;;;;;;;4.28;2.20;;;;;;;35.16;28.23;100005.80;1784429;78;21059;-61
2021/05/28 08:36:23;;;;;;;6.78;1.85;;;;;;;35.04;28.43;100008.08;1772980;78;20984;-67
2021/05/28 08:38:51;;;;;;;4.70;1.67;;;;;;;34.92;27.99;100003.30;1764002;78;20945;-66
2021/05/28 08:41:19;;;;;;;5.47;1.85;;;;;;;34.70;28.18;100006.08;1784697;78;22199;-68
2021/05/28 08:43:47;;;;;;;3.75;1.70;;;;;;;34.47;29.04;100005.33;1752625;79;20981;-62
2021/05/28 08:46:16;;;;;;;3.58;1.82;;;;;;;34.22;30.15;100006.09;1765076;79;21848;-64
2021/05/28 08:48:42;;;;;;;10.08;2.33;;;;;;;33.94;30.80;100004.73;1761246;79;21503;-66
2021/05/28 08:51:10;;;;;;;3.62;1.80;;;;;;;33.59;30.92;100005.36;1778393;78;20975;-66
2021/05/28 08:53:37;;;;;;;4.85;1.95;;;;;;;33.43;30.17;100004.49;1793955;78;21151;-67
2021/05/28 08:56:09;;;;;;;3.95;2.12;;;;;;;33.42;30.96;99999.66;1784785;78;22448;-60
2021/05/28 08:58:36;;;;;;;4.80;2.00;;;;;;;33.38;30.59;100004.75;1784501;78;21172;-67
2021/05/28 09:01:03;;;;;;;4.03;2.00;;;;;;;33.28;31.12;100004.64;1785963;78;21116;-65
2021/05/28 09:03:32;;;;;;;4.67;2.17;;;;;;;33.12;31.16;100001.09;1770217;79;21051;-66
2021/05/28 09:06:16;;;;;;;7.58;2.75;;;;;;;33.08;32.60;99998.28;1776893;78;21050;-62
2021/05/28 09:08:42;;;;;;;3.27;1.90;;;;;;;32.81;31.71;99986.25;1810730;78;21715;-66
2021/05/28 09:11:13;;;;;;;5.53;2.15;;;;;;;32.62;31.75;99986.05;1792771;78;21557;-68
2021/05/28 09:13:54;;;;;;;5.60;2.10;;;;;;;32.49;32.70;99983.89;1784833;78;26491;-67
2021/05/28 09:16:26;;;;;;;5.35;2.33;;;;;;;32.51;32.80;99980.30;1771201;80;20975;-67
2021/05/28 09:18:57;;;;;;;3.22;1.85;;;;;;;32.23;33.40;99983.59;1793023;78;22060;-66
2021/05/28 09:21:32;;;;;;;7.00;2.12;;;;;;;32.09;33.86;99983.15;1795067;78;21541;-62
2021/05/28 09:23:55;;;;;;;2.25;1.80;;;;;;;32.19;32.86;99976.52;1793890;78;20997;-66
2021/05/28 09:26:25;;;;;;;3.62;1.65;;;;;;;32.58;32.87;99972.97;1779479;78;21032;-67
2021/05/28 09:28:54;;;;;;;;;;;;;;;32.81;32.38;99973.33;1793720;78;21002;-69
2021/05/28 09:31:23;;;;;;;6.25;1.65;;;;;;;32.73;30.90;99961.49;1760625;79;21078;-63
2021/05/28 09:33:52;;;;;;;4.40;2.00;;;;;;;32.69;30.52;99960.06;1797999;78;21032;-63
2021/05/28 09:36:24;;;;;;;3.70;1.80;;;;;;;32.53;31.91;99958.38;1753422;80;22583;-70
2021/05/28 09:39:13;;;;;;;3.20;1.50;;;;;;;32.25;31.21;99955.53;1783152;78;20972;-71
2021/05/28 09:41:46;;;;;;;6.08;1.50;;;;;;;31.85;30.49;99956.09;1767880;79;21078;-69
2021/05/28 09:44:29;;;;;;;5.33;1.77;;;;;;;31.53;31.31;99949.59;1795200;78;22510;-69
2021/05/28 09:47:19;;;;;;;2.95;1.32;;;;;;;31.40;30.58;99946.83;1773548;79;20889;-69
2021/05/28 09:49:48;;;;;;;3.20;1.55;;;;;;;31.24;31.36;99942.58;1781233;78;21669;-70
2021/05/28 09:52:24;;;;;;;4.28;1.30;;;;;;;31.22;31.30;99951.56;1779644;78;21034;-65
2021/05/28 09:55:01;;;;;;;2.60;1.72;;;;;;;31.47;31.04;99944.39;1780817;78;21000;-72
2021/05/28 09:57:38;;;;;;;2.58;1.47;;;;;;;31.78;31.15;99943.71;1767928;79;22268;-70
2021/05/28 10:00:24;;;;;;;5.33;2.02;;;;;;;31.85;30.95;99946.12;1796889;78;21163;-69
2021/05/28 10:03:10;;;;;;;4.97;1.87;;;;;;;31.77;30.93;99951.58;1775544;78;20994;-67
2021/05/28 10:05:39;;;;;;;3.95;1.60;;;;;;;31.66;30.71;99951.98;1687791;82;22429;-70
2021/05/28 10:08:07;;;;;;;2.45;1.30;;;;;;;31.63;31.11;99947.81;1750178;78;21049;-67
2021/05/28 10:10:35;;;;;;;2.70;1.30;;;;;;;31.38;30.90;99950.98;1772043;78;22169;-67
2021/05/28 10:13:11;;;;;;;2.17;1.30;;;;;;;30.96;32.05;99949.05;1770680;78;21105;-60
2021/05/28 10:15:47;;;;;;;5.08;1.70;;;;;;;30.84;31.20;99948.98;1777051;78;21653;-68
2021/05/28 10:18:15;;;;;;;9.43;1.62;;;;;;;30.84;31.20;99948.98;1766841;78;21026;-69
2021/05/28 10:20:44;;;;;;;3.08;1.50;;;;;;;30.71;31.37;99944.58;1792483;78;21127;-69
2021/05/28 10:23:12;;;;;;;3.57;1.20;;;;;;;30.71;31.37;99944.58;1793319;78;22280;-67
2021/05/28 10:25:39;;;;;;;3.62;1.62;;;;;;;30.90;30.89;99946.87;1778007;78;22288;-70
2021/05/28 10:28:17;;;;;;;4.72;1.57;;;;;;;31.28;30.69;99944.62;1789990;78;20996;-69
2021/05/28 10:30:44;;;;;;;6.12;1.72;;;;;;;31.78;30.07;99933.71;1792753;78;20983;-63
2021/05/28 10:33:27;;;;;;;2.83;1.50;;;;;;;32.46;30.29;99932.73;1786975;78;21666;-68
2021/05/28 10:35:59;;;;;;;3.33;1.67;;;;;;;32.98;29.20;99926.41;1783405;78;21082;-69
2021/05/28 10:38:36;;;;;;;4.55;1.80;;;;;;;33.30;28.60;99930.00;1786415;78;20987;-71
2021/05/28 10:41:14;;;;;;;3.87;2.02;;;;;;;33.49;28.92;99922.63;1791669;78;21572;-68
2021/05/28 10:43:59;;;;;;;4.85;1.70;;;;;;;33.82;29.10;99920.99;1811026;78;21075;-70
2021/05/28 10:46:27;;;;;;;3.40;1.67;;;;;;;34.16;27.43;99916.84;1779158;78;21099;-66
2021/05/28 10:49:06;;;;;;;3.00;1.70;;;;;;;34.38;27.46;99912.72;1778814;79;21082;-67
2021/05/28 10:51:38;;;;;;;4.12;1.50;;;;;;;34.34;26.79;99909.16;1765084;79;22397;-68
2021/05/28 10:54:19;;;;;;;2.47;1.67;;;;;;;34.17;26.82;99904.88;1776289;79;21024;-62
2021/05/28 10:56:46;;;;;;;6.22;2.30;;;;;;;34.03;26.91;99909.40;1789965;78;21119;-62
2021/05/28 10:59:19;;;;;;;4.00;1.60;;;;;;;33.78;27.46;99910.66;1769618;79;21050;-68
2021/05/28 11:01:55;;;;;;;5.28;2.02;;;;;;;33.54;27.43;99908.31;1787854;78;21076;-64
2021/05/28 11:04:34;;;;;;;3.00;1.90;;;;;;;33.45;28.62;99906.86;1787828;78;21153;-67
2021/05/28 11:07:08;;;;;;;4.90;1.60;;;;;;;33.32;27.82;99902.87;1776223;78;21081;-68
2021/05/28 11:09:49;;;;;;;6.72;1.85;;;;;;;32.98;27.50;99900.75;1777004;78;21048;-67
2021/05/28 11:12:36;;;;;;;2.85;1.60;;;;;;;32.74;27.63;99896.96;1796602;78;21457;-62
2021/05/28 11:15:10;;;;;;;2.72;1.77;;;;;;;32.43;29.02;99905.09;1771137;78;21080;-68
2021/05/28 11:18:00;;;;;;;3.15;1.52;;;;;;;32.11;29.37;99902.69;1783685;78;20942;-70
2021/05/28 11:20:39;;;;;;;2.62;1.70;;;;;;;31.88;30.21;99896.16;1759397;79;21060;-66
2021/05/28 11:23:16;;;;;;;2.45;1.50;;;;;;;31.61;30.82;99894.84;1773932;78;21658;-70
2021/05/28 11:25:48;;;;;;;3.37;1.42;;;;;;;31.44;31.13;99891.73;1778940;79;21063;-69
2021/05/28 11:28:15;;;;;;;4.45;1.80;;;;;;;31.45;31.33;99884.69;1751273;79;21674;-66
2021/05/28 11:30:47;;;;;;;3.92;1.90;;;;;;;31.54;30.70;99889.98;1775684;78;21085;-70